North Downs, United Kingdom
Current Conditions -  °F | °C
As of 10:20 AM on Sunday 25 Jan 2015 (Local Time) from EGMC Reporting Station
Broken Clouds Broken Clouds  
Wind Chill: 34°   Ceiling: 3800
Heat Index: 39°   Visibility: 6mi
Dew Point: 32°   Wind: 8mph
Humidity: 75%   Direction: 230°SW
Pressure: 30.45"   Gusts: NA
Location:  51.25°N, 0.68°E
Report Text: EGMC 251020Z 23007KT 9999 BKN038 04/00 Q1031
Loading
Personal Weather Stations






























Interactive Weather Map New forecast layout! Learn more

10-Day Weather Forecast

Advertisements
Track Severe Weather on mobile